Time;durP1;ratioP1;P1;durP2;ratioP2;P2;SDS_P1;SDS_P2;PMS_P1;PMS_P2;Temp;Humidity;BMP_temperature;BMP_pressure;BME280_temperature;BME280_humidity;BME280_pressure;Samples;Min_cycle;Max_cycle;Signal;HPM_P1;HPM_P2
2022/12/23 00:01:26;;;;;;;25.13;15.25;;;;;;;14.32;52.32;99929.88;5091346;28;20075;-67
2022/12/23 00:03:58;;;;;;;24.33;15.82;;;;;;;14.27;52.41;99921.34;5091918;28;20119;-67
2022/12/23 00:06:26;;;;;;;24.23;15.90;;;;;;;14.25;52.47;99925.13;5090105;28;20054;-67
2022/12/23 00:08:56;;;;;;;23.98;15.15;;;;;;;14.23;52.58;99927.94;5090192;28;20051;-70
2022/12/23 00:11:29;;;;;;;25.40;15.38;;;;;;;14.22;52.49;99923.56;5091801;28;20064;-69
2022/12/23 00:16:50;;;;;;;26.42;16.13;;;;;;;14.18;52.52;99932.81;5091613;28;20073;-67
2022/12/23 00:19:19;;;;;;;24.30;14.98;;;;;;;14.15;52.60;99933.06;5090415;28;20052;-67
2022/12/23 00:21:47;;;;;;;22.42;14.43;;;;;;;14.13;52.59;99928.81;5091817;28;20044;-67
2022/12/23 00:24:16;;;;;;;25.40;15.95;;;;;;;14.11;52.65;99923.56;5091835;28;20080;-68
2022/12/23 00:26:44;;;;;;;25.08;15.27;;;;;;;14.10;52.67;99924.56;5090274;28;20052;-67
2022/12/23 00:29:12;;;;;;;24.75;15.02;;;;;;;14.07;52.76;99924.78;5091522;28;20040;-67
2022/12/23 00:31:40;;;;;;;24.15;14.25;;;;;;;14.06;52.68;99927.59;5091633;28;20046;-67
2022/12/23 00:34:11;;;;;;;24.65;14.57;;;;;;;14.03;52.73;99923.31;5091583;28;20493;-68
2022/12/23 00:36:40;;;;;;;23.77;14.63;;;;;;;14.00;52.82;99920.91;5091424;28;20071;-67
2022/12/23 00:44:43;;;;;;;23.38;14.40;;;;;;;13.94;52.83;99916.84;5091511;28;20076;-67
2022/12/23 00:49:40;;;;;;;24.58;13.68;;;;;;;13.93;52.76;99912.47;5091261;28;20123;-67
2022/12/23 00:50:06;;;;;;;21.38;13.63;;;;;;;13.91;53.01;99908.22;5091166;28;20062;-67
2022/12/23 00:52:34;;;;;;;25.02;14.00;;;;;;;13.88;52.96;99908.44;5091436;28;20504;-67
2022/12/23 00:55:03;;;;;;;24.80;14.05;;;;;;;13.86;52.82;99905.03;5091554;28;20051;-67
2022/12/23 00:57:31;;;;;;;23.27;13.95;;;;;;;13.85;53.04;99908.69;5091234;28;20048;-67
2022/12/23 01:00:02;;;;;;;22.98;13.50;;;;;;;13.84;52.90;99905.16;5091258;28;20044;-67
2022/12/23 01:05:36;;;;;;;21.73;13.95;;;;;;;13.79;52.94;99903.81;5092460;28;20131;-67
2022/12/23 01:08:05;;;;;;;19.48;12.75;;;;;;;13.80;52.94;99908.19;5094769;28;20079;-67
2022/12/23 01:10:34;;;;;;;20.65;13.57;;;;;;;13.77;53.05;99911.13;5094742;28;20058;-67
2022/12/23 01:13:02;;;;;;;22.48;13.10;;;;;;;13.74;52.97;99901.50;5094600;28;20071;-68
2022/12/23 01:15:31;;;;;;;21.40;12.98;;;;;;;13.74;53.17;99909.53;5094495;28;20054;-67
2022/12/23 01:17:59;;;;;;;23.05;13.05;;;;;;;13.70;53.34;99906.25;5094454;28;20051;-69
2022/12/23 01:20:29;;;;;;;23.40;13.35;;;;;;;13.69;53.30;99903.69;5094624;28;20052;-68
2022/12/23 01:22:57;;;;;;;20.42;13.13;;;;;;;13.67;53.36;99894.91;5094468;28;20091;-69
2022/12/23 01:25:25;;;;;;;21.50;13.25;;;;;;;13.65;53.39;99889.69;5094613;28;20048;-67
2022/12/23 01:27:53;;;;;;;21.63;13.15;;;;;;;13.63;53.44;99888.09;5094385;28;20048;-69
2022/12/23 01:30:24;;;;;;;21.42;12.95;;;;;;;13.60;53.59;99889.16;5094361;28;20044;-68
2022/12/23 01:32:52;;;;;;;21.48;12.65;;;;;;;13.59;53.46;99895.50;5094317;28;20083;-68
2022/12/23 01:35:20;;;;;;;20.50;12.95;;;;;;;13.57;53.58;99896.59;5094318;28;20051;-67
2022/12/23 01:37:50;;;;;;;21.05;12.52;;;;;;;13.59;53.46;99891.97;5094065;28;20068;-66
2022/12/23 01:40:18;;;;;;;21.35;12.57;;;;;;;13.57;53.53;99877.84;5094078;28;20083;-67
2022/12/23 01:42:45;;;;;;;21.40;12.40;;;;;;;13.56;53.45;99879.69;5094126;28;20051;-69
2022/12/23 01:45:17;;;;;;;22.00;13.30;;;;;;;13.52;53.58;99870.19;5094113;28;20048;-68
2022/12/23 01:47:50;;;;;;;19.05;12.00;;;;;;;13.53;53.48;99882.59;5094068;28;20044;-67
2022/12/23 01:50:24;;;;;;;20.80;12.40;;;;;;;13.50;53.68;99871.25;5093888;28;20393;-67
2022/12/23 01:52:59;;;;;;;20.25;12.80;;;;;;;13.46;53.79;99874.19;5093807;28;20109;-68
2022/12/23 01:55:45;;;;;;;21.35;12.23;;;;;;;13.45;53.58;99874.31;5093867;28;20127;-67
2022/12/23 01:58:17;;;;;;;24.35;12.73;;;;;;;13.45;53.69;99872.47;5093681;28;20040;-68
2022/12/23 02:03:43;;;;;;;18.95;11.85;;;;;;;13.43;53.71;99865.53;5093663;28;20040;-67
2022/12/23 02:09:18;;;;;;;19.95;11.90;;;;;;;13.38;54.00;99860.53;5093653;28;20097;-69
2022/12/23 02:12:21;;;;;;;20.33;13.13;;;;;;;13.37;54.02;99855.28;5093415;28;20048;-67
2022/12/23 02:18:00;;;;;;;23.23;13.63;;;;;;;13.36;53.94;99850.91;5093278;28;20040;-69
2022/12/23 02:20:57;;;;;;;19.23;12.35;;;;;;;13.33;54.03;99846.66;5093348;28;20048;-68
2022/12/23 02:24:13;;;;;;;20.88;12.18;;;;;;;13.32;53.98;99852.13;5093374;28;20040;-69
2022/12/23 02:27:05;;;;;;;22.08;13.40;;;;;;;13.29;54.13;99852.34;5093293;28;20040;-68
2022/12/23 02:30:05;;;;;;;20.58;12.70;;;;;;;13.28;53.97;99846.16;5093202;28;20123;-69
2022/12/23 02:32:50;;;;;;;21.23;13.05;;;;;;;13.25;54.20;99850.91;5061461;28;20055;-69
2022/12/23 02:35:26;;;;;;;20.73;12.68;;;;;;;13.25;54.16;99850.91;5093153;28;20123;-68
2022/12/23 02:38:01;;;;;;;20.23;12.55;;;;;;;13.23;54.38;99853.69;5093147;28;20133;-69
2022/12/23 02:40:39;;;;;;;24.80;13.95;;;;;;;13.22;54.26;99845.75;5093020;28;20044;-69
2022/12/23 02:43:17;;;;;;;20.10;13.02;;;;;;;13.18;54.04;99845.97;5092860;28;20071;-66
2022/12/23 02:45:50;;;;;;;19.80;13.10;;;;;;;13.20;54.25;99839.69;5093102;28;20083;-68
2022/12/23 02:48:27;;;;;;;20.98;13.32;;;;;;;13.18;54.26;99840.63;5092769;28;20135;-67
2022/12/23 02:50:57;;;;;;;22.45;13.32;;;;;;;13.17;54.38;99844.28;5091393;28;20056;-67
2022/12/23 02:53:30;;;;;;;20.90;13.18;;;;;;;13.16;54.44;99844.41;5091499;28;20408;-67
2022/12/23 02:56:00;;;;;;;23.20;13.77;;;;;;;13.15;54.17;99843.53;5092844;28;20048;-69
2022/12/23 02:58:33;;;;;;;24.88;14.10;;;;;;;13.15;54.31;99840.00;5092875;28;20055;-69
2022/12/23 03:01:03;;;;;;;23.15;14.00;;;;;;;13.11;54.42;99835.84;5092493;28;20130;-71
2022/12/23 03:03:35;;;;;;;23.70;14.02;;;;;;;13.07;54.38;99837.91;5092713;28;20074;-69
2022/12/23 03:06:13;;;;;;;21.88;13.75;;;;;;;13.08;54.42;99850.34;5092502;28;20093;-69
2022/12/23 03:08:44;;;;;;;23.83;14.63;;;;;;;13.05;54.61;99858.63;5092549;28;20480;-69
2022/12/23 03:11:14;;;;;;;26.30;15.20;;;;;;;13.05;54.53;99855.94;5092499;28;20550;-67
2022/12/23 03:13:59;;;;;;;27.90;15.45;;;;;;;13.04;54.42;99856.91;5092394;28;20051;-69
2022/12/23 03:16:35;;;;;;;24.48;14.82;;;;;;;13.00;54.61;99844.72;5092616;28;20044;-69
2022/12/23 03:19:14;;;;;;;23.25;14.63;;;;;;;13.00;54.54;99854.56;5092188;28;20044;-67
2022/12/23 03:21:45;;;;;;;26.25;14.95;;;;;;;12.99;54.41;99847.50;5092389;28;20043;-67
2022/12/23 03:24:22;;;;;;;26.33;14.38;;;;;;;12.96;54.67;99839.72;5092323;28;20040;-67
2022/12/23 03:26:57;;;;;;;28.60;16.33;;;;;;;12.97;54.45;99846.78;5091765;28;20511;-67
2022/12/23 03:29:32;;;;;;;25.10;15.48;;;;;;;12.93;54.44;99842.63;5092523;28;20048;-67
2022/12/23 03:32:03;;;;;;;26.55;15.85;;;;;;;12.92;54.67;99836.41;5092175;28;20097;-67
2022/12/23 03:34:39;;;;;;;27.73;15.55;;;;;;;12.89;54.52;99834.81;5092153;28;20050;-67
2022/12/23 03:37:10;;;;;;;27.73;15.77;;;;;;;12.89;54.69;99831.28;5090677;28;20047;-68
2022/12/23 03:39:43;;;;;;;25.90;15.52;;;;;;;12.88;54.62;99842.97;5092016;28;20131;-67
2022/12/23 03:42:18;;;;;;;26.47;16.00;;;;;;;12.87;54.73;99838.59;5092062;28;20046;-68
2022/12/23 03:44:52;;;;;;;29.98;16.65;;;;;;;12.85;54.67;99843.22;5091966;28;20040;-67
2022/12/23 03:47:46;;;;;;;26.88;15.70;;;;;;;12.85;54.64;99835.19;5091830;28;20606;-67
2022/12/23 03:50:19;;;;;;;26.50;16.02;;;;;;;12.82;54.63;99830.06;5091878;28;20052;-69
2022/12/23 03:52:52;;;;;;;27.85;16.75;;;;;;;12.81;54.62;99831.03;5091915;28;20075;-69
2022/12/23 03:55:25;;;;;;;28.55;16.80;;;;;;;12.80;54.69;99834.66;5092000;28;20066;-67
2022/12/23 03:58:09;;;;;;;27.60;16.95;;;;;;;12.78;54.67;99833.94;5091858;28;20040;-69
2022/12/23 04:00:48;;;;;;;27.85;15.73;;;;;;;12.75;54.89;99829.69;5091528;28;20451;-69
2022/12/23 04:03:25;;;;;;;28.30;16.45;;;;;;;12.73;55.00;99834.28;5091999;28;20094;-68
2022/12/23 04:05:59;;;;;;;28.75;16.92;;;;;;;12.73;54.82;99826.25;5091843;28;20040;-68
2022/12/23 04:08:32;;;;;;;28.23;16.70;;;;;;;12.71;54.96;99819.31;5091866;28;20375;-67
2022/12/23 04:11:01;;;;;;;27.48;16.25;;;;;;;12.70;54.90;99823.81;5091775;28;20048;-68
2022/12/23 04:13:30;;;;;;;27.40;16.10;;;;;;;12.71;55.02;99824.66;5092045;28;20044;-69
2022/12/23 04:15:59;;;;;;;27.85;16.67;;;;;;;12.70;55.06;99825.63;5091833;28;20048;-68
2022/12/23 04:18:28;;;;;;;30.58;17.23;;;;;;;12.68;55.01;99814.19;5091588;28;20473;-68
2022/12/23 04:20:58;;;;;;;28.75;16.10;;;;;;;12.65;55.16;99819.78;5091674;28;20127;-68
2022/12/23 04:23:26;;;;;;;27.70;16.75;;;;;;;12.65;55.05;99814.44;5091670;28;20069;-68
2022/12/23 04:25:54;;;;;;;29.23;17.20;;;;;;;12.64;55.20;99815.38;5091500;28;20048;-68
2022/12/23 04:28:22;;;;;;;27.05;15.77;;;;;;;12.61;55.09;99808.44;5091586;28;20176;-68
2022/12/23 04:30:50;;;;;;;30.63;16.83;;;;;;;12.59;55.14;99799.69;5091586;28;20477;-68
2022/12/23 04:33:19;;;;;;;32.85;16.95;;;;;;;12.58;55.31;99809.53;5091463;28;20431;-69
2022/12/23 04:35:47;;;;;;;31.02;17.02;;;;;;;12.57;54.95;99802.50;5091543;28;20067;-69
2022/12/23 04:38:16;;;;;;;28.35;16.58;;;;;;;12.59;55.16;99816.59;5091418;28;20091;-69
2022/12/23 04:40:45;;;;;;;30.35;16.45;;;;;;;12.59;54.97;99813.91;5095056;28;20047;-69
2022/12/23 04:43:14;;;;;;;27.90;16.77;;;;;;;12.68;55.12;99815.06;5095212;28;20048;-69
2022/12/23 04:45:42;;;;;;;27.77;16.60;;;;;;;12.78;55.73;99820.56;5095120;28;20491;-69
2022/12/23 04:48:10;;;;;;;31.45;17.55;;;;;;;12.85;55.47;99811.94;5095252;28;20140;-68
2022/12/23 04:50:39;;;;;;;27.05;16.40;;;;;;;12.97;55.69;99818.19;5094945;28;20056;-67
2022/12/23 04:53:07;;;;;;;29.30;16.65;;;;;;;13.08;55.45;99820.03;5095013;28;20044;-67
2022/12/23 04:55:37;;;;;;;26.50;16.00;;;;;;;13.18;55.25;99827.22;5095059;28;20044;-67
2022/12/23 04:58:05;;;;;;;28.40;17.20;;;;;;;13.29;55.20;99825.56;5094996;28;20135;-67
2022/12/23 05:00:33;;;;;;;27.63;16.15;;;;;;;13.40;55.05;99828.25;5095080;28;20040;-67
2022/12/23 05:03:07;;;;;;;27.98;15.70;;;;;;;13.51;55.12;99822.94;5094873;28;20048;-67
2022/12/23 05:05:35;;;;;;;27.63;16.42;;;;;;;13.63;54.88;99823.78;5095212;28;20048;-67
2022/12/23 05:08:04;;;;;;;29.52;17.42;;;;;;;13.72;54.85;99810.50;5094781;28;20040;-67
2022/12/23 05:10:33;;;;;;;26.80;16.10;;;;;;;13.84;54.88;99815.84;5094792;28;20559;-69
2022/12/23 05:13:02;;;;;;;25.85;15.60;;;;;;;13.92;54.92;99824.13;5094867;28;20044;-67
2022/12/23 05:15:31;;;;;;;26.45;16.02;;;;;;;14.04;54.66;99826.66;5094754;28;20070;-67
2022/12/23 05:18:00;;;;;;;27.08;15.55;;;;;;;14.11;54.44;99832.38;5094510;28;20129;-69
2022/12/23 05:20:30;;;;;;;25.33;15.55;;;;;;;14.20;54.42;99828.94;5094858;28;20044;-69
2022/12/23 05:22:58;;;;;;;25.70;15.65;;;;;;;14.30;54.40;99832.59;5094551;28;20473;-68
2022/12/23 05:25:26;;;;;;;24.45;15.40;;;;;;;14.41;54.35;99828.16;5094607;28;20119;-68
2022/12/23 05:27:54;;;;;;;24.52;14.63;;;;;;;14.50;54.26;99827.44;5094887;28;20602;-68
2022/12/23 05:30:28;;;;;;;24.65;15.45;;;;;;;14.60;54.13;99828.38;5094303;28;20055;-68
2022/12/23 05:32:57;;;;;;;26.00;14.85;;;;;;;14.71;54.13;99817.56;5094400;28;20101;-68
2022/12/23 05:35:26;;;;;;;24.70;14.90;;;;;;;14.81;53.95;99807.75;5094261;28;20040;-68
2022/12/23 05:37:56;;;;;;;26.88;15.80;;;;;;;14.89;53.88;99805.28;5094145;28;20051;-67
2022/12/23 05:40:24;;;;;;;24.63;15.70;;;;;;;14.96;53.71;99805.63;5094079;28;20684;-69
2022/12/23 05:42:59;;;;;;;23.77;15.27;;;;;;;14.99;53.81;99812.56;5094070;28;20047;-68
2022/12/23 05:45:28;;;;;;;25.55;15.18;;;;;;;15.02;53.63;99817.66;5094166;28;20051;-68
2022/12/23 05:47:57;;;;;;;23.17;14.65;;;;;;;15.04;53.80;99807.63;5094124;28;20044;-68
2022/12/23 05:50:25;;;;;;;24.50;14.90;;;;;;;15.05;53.65;99810.19;5093338;28;20455;-68
2022/12/23 05:52:54;;;;;;;25.50;15.15;;;;;;;15.09;53.71;99818.84;5094003;28;20051;-68
2022/12/23 05:55:23;;;;;;;23.55;15.25;;;;;;;15.11;53.71;99827.63;5093920;28;20072;-68
2022/12/23 05:57:51;;;;;;;22.92;14.68;;;;;;;15.12;53.58;99838.22;5093918;28;20066;-68
2022/12/23 06:00:20;;;;;;;22.63;14.00;;;;;;;15.14;53.69;99840.78;5093759;28;20040;-68
2022/12/23 06:02:50;;;;;;;22.17;14.20;;;;;;;15.16;53.59;99846.91;5093820;28;20122;-68
2022/12/23 06:05:21;;;;;;;23.45;14.40;;;;;;;15.24;53.43;99844.38;5093798;28;20092;-68
2022/12/23 06:07:49;;;;;;;22.50;14.35;;;;;;;15.31;53.38;99842.03;5093539;28;20101;-69
2022/12/23 06:10:19;;;;;;;21.67;14.20;;;;;;;15.35;53.35;99838.09;5093760;28;20139;-68
2022/12/23 06:12:47;;;;;;;22.20;13.73;;;;;;;15.37;53.38;99836.97;5092245;28;20131;-69
2022/12/23 06:15:15;;;;;;;21.73;13.48;;;;;;;15.38;53.41;99830.63;5093593;28;20048;-68
2022/12/23 06:17:43;;;;;;;20.95;13.32;;;;;;;15.38;53.33;99838.69;5093504;28;20173;-68
2022/12/23 06:20:14;;;;;;;20.85;13.55;;;;;;;15.38;53.44;99841.38;5093323;28;20055;-68
2022/12/23 06:22:48;;;;;;;20.67;14.13;;;;;;;15.38;53.49;99838.69;5093338;28;20063;-68
2022/12/23 06:25:16;;;;;;;22.90;14.27;;;;;;;15.33;53.48;99835.53;5093363;28;20040;-69
2022/12/23 06:27:44;;;;;;;20.08;13.15;;;;;;;15.31;53.57;99836.66;5093300;28;20050;-68
2022/12/23 06:30:15;;;;;;;20.63;13.75;;;;;;;15.26;53.66;99839.75;5093290;28;20048;-69
2022/12/23 06:32:43;;;;;;;18.67;13.05;;;;;;;15.20;53.87;99828.66;5093200;28;20052;-68
2022/12/23 06:35:12;;;;;;;22.73;13.98;;;;;;;15.18;53.76;99836.88;5092957;28;20177;-69
2022/12/23 06:37:41;;;;;;;23.85;13.52;;;;;;;15.13;53.64;99829.19;5093000;28;20499;-69
2022/12/23 06:40:13;;;;;;;22.90;14.27;;;;;;;15.10;53.51;99828.59;5093088;28;20047;-69
2022/12/23 06:42:41;;;;;;;23.02;14.18;;;;;;;15.05;53.79;99830.81;5092920;28;20111;-69
2022/12/23 06:45:10;;;;;;;22.10;14.38;;;;;;;15.00;53.85;99833.91;5092904;28;20046;-68
2022/12/23 06:47:38;;;;;;;19.42;13.45;;;;;;;14.95;53.77;99846.00;5092542;28;20050;-69
2022/12/23 06:50:08;;;;;;;21.50;13.75;;;;;;;14.89;53.82;99842.03;5092593;28;20564;-68
2022/12/23 06:52:37;;;;;;;21.45;13.27;;;;;;;14.85;53.83;99846.78;5091481;28;20055;-69
2022/12/23 06:55:07;;;;;;;22.40;13.93;;;;;;;14.78;53.96;99845.63;5092833;28;20044;-69
2022/12/23 06:57:36;;;;;;;20.13;13.25;;;;;;;14.74;54.02;99835.25;5092616;28;20547;-69
2022/12/23 07:00:07;;;;;;;19.67;13.43;;;;;;;14.70;53.94;99847.25;5091235;28;20105;-69
2022/12/23 07:02:36;;;;;;;20.73;12.95;;;;;;;14.65;54.01;99850.28;5091843;28;20458;-69
2022/12/23 07:05:05;;;;;;;19.98;12.68;;;;;;;14.61;53.97;99854.22;5092899;28;20105;-69
2022/12/23 07:07:33;;;;;;;18.58;12.38;;;;;;;14.57;54.01;99875.13;5092558;28;20463;-69
2022/12/23 07:10:03;;;;;;;19.45;12.18;;;;;;;14.51;53.60;99874.75;5092572;28;20075;-69
2022/12/23 07:12:33;;;;;;;18.98;12.65;;;;;;;14.45;53.73;99873.41;5092491;28;20178;-67
2022/12/23 07:15:02;;;;;;;21.40;13.75;;;;;;;14.42;53.65;99892.44;5092483;28;20044;-68
2022/12/23 07:17:30;;;;;;;21.95;13.52;;;;;;;14.37;53.48;99881.19;5091153;28;20044;-67
2022/12/23 07:19:58;;;;;;;19.17;12.60;;;;;;;14.32;53.57;99884.28;5092458;28;20068;-66
2022/12/23 07:22:27;;;;;;;21.23;12.60;;;;;;;14.28;53.66;99896.25;5092318;28;20072;-68
2022/12/23 07:24:55;;;;;;;20.92;13.65;;;;;;;14.22;53.71;99891.38;5092246;28;20524;-67
2022/12/23 07:27:23;;;;;;;19.77;13.07;;;;;;;14.17;53.66;99890.88;5092139;28;20059;-67
2022/12/23 07:29:53;;;;;;;19.83;13.25;;;;;;;14.12;53.84;99882.38;5092079;28;20044;-67
2022/12/23 07:32:21;;;;;;;19.67;13.02;;;;;;;14.10;53.79;99881.63;5092163;28;20068;-67
2022/12/23 07:34:49;;;;;;;18.30;11.63;;;;;;;14.04;53.70;99872.25;5092151;28;20039;-69
2022/12/23 07:37:17;;;;;;;18.23;11.75;;;;;;;14.00;53.74;99870.81;5092001;28;20062;-69
2022/12/23 07:39:47;;;;;;;19.42;12.77;;;;;;;13.95;53.85;99856.91;5091991;28;20066;-67
2022/12/23 07:42:15;;;;;;;19.67;12.63;;;;;;;13.94;53.72;99857.03;5091992;28;20040;-66
2022/12/23 07:45:06;;;;;;;20.98;13.50;;;;;;;13.88;53.69;99862.88;5092057;28;20048;-66
2022/12/23 07:47:34;;;;;;;21.13;13.68;;;;;;;13.84;53.69;99869.47;5092065;28;20561;-66
2022/12/23 07:50:03;;;;;;;19.20;12.15;;;;;;;13.81;53.88;99872.41;5091710;28;20055;-68
2022/12/23 07:52:31;;;;;;;19.67;12.60;;;;;;;13.78;53.66;99864.56;5091788;28;20044;-66
2022/12/23 07:54:59;;;;;;;18.50;12.38;;;;;;;13.77;53.79;99869.09;5090542;28;20074;-68
2022/12/23 07:57:28;;;;;;;17.83;12.02;;;;;;;13.74;53.77;99864.81;5091801;28;20406;-68
2022/12/23 07:59:59;;;;;;;21.10;13.43;;;;;;;13.72;53.63;99860.56;5091763;28;20044;-67
2022/12/23 08:02:28;;;;;;;18.95;12.50;;;;;;;13.73;54.12;99856.91;5091685;28;20481;-67
2022/12/23 08:04:57;;;;;;;20.83;12.85;;;;;;;13.75;54.36;99861.16;5090192;28;20409;-67
2022/12/23 08:07:25;;;;;;;18.23;11.63;;;;;;;13.79;54.36;99866.28;5091755;28;20479;-68
2022/12/23 08:09:53;;;;;;;19.58;12.60;;;;;;;13.80;54.55;99863.50;5091990;28;20435;-67
2022/12/23 08:12:21;;;;;;;21.38;13.65;;;;;;;13.83;54.55;99873.13;5090348;28;20055;-67
2022/12/23 08:14:51;;;;;;;20.13;12.23;;;;;;;13.82;54.62;99850.81;5095480;28;20542;-67
2022/12/23 08:17:20;;;;;;;19.83;12.63;;;;;;;13.82;54.76;99856.19;5095804;28;20122;-67
2022/12/23 08:19:50;;;;;;;20.10;12.90;;;;;;;13.80;54.80;99844.72;5095552;28;20056;-67
2022/12/23 08:22:18;;;;;;;22.20;14.35;;;;;;;13.80;54.74;99838.50;5095743;28;20040;-68
2022/12/23 08:24:46;;;;;;;21.35;13.15;;;;;;;13.78;54.89;99832.41;5094182;28;20106;-68
2022/12/23 08:27:15;;;;;;;23.75;14.88;;;;;;;13.78;54.71;99845.81;5095621;28;20044;-68
2022/12/23 08:29:46;;;;;;;21.67;13.30;;;;;;;13.75;54.49;99850.44;5095437;28;20043;-68
2022/12/23 08:32:14;;;;;;;18.38;11.38;;;;;;;13.72;54.07;99848.03;5095444;28;20048;-68
2022/12/23 08:34:42;;;;;;;17.75;10.85;;;;;;;13.70;53.89;99858.03;5095451;28;20462;-68
2022/12/23 08:37:12;;;;;;;16.65;10.77;;;;;;;13.68;53.93;99851.91;5093943;28;20044;-68
2022/12/23 08:39:41;;;;;;;21.48;12.25;;;;;;;13.62;53.92;99833.66;5095271;28;20398;-69
2022/12/23 08:42:09;;;;;;;18.40;11.65;;;;;;;13.64;53.76;99853.13;5093952;28;20048;-68
2022/12/23 08:44:37;;;;;;;19.50;12.20;;;;;;;13.60;54.07;99848.97;5095107;28;20089;-68
2022/12/23 08:47:05;;;;;;;17.48;11.52;;;;;;;13.58;54.09;99853.59;5094021;28;20094;-67
2022/12/23 08:49:33;;;;;;;17.85;11.40;;;;;;;13.55;54.21;99842.28;5094907;28;20470;-68
2022/12/23 08:52:02;;;;;;;19.67;12.48;;;;;;;13.52;54.35;99838.03;5093812;28;20131;-69
2022/12/23 08:54:31;;;;;;;18.23;11.82;;;;;;;13.49;54.35;99837.41;5094375;28;20127;-68
2022/12/23 08:57:00;;;;;;;19.73;11.85;;;;;;;13.45;54.41;99812.69;5094891;28;20047;-65
2022/12/23 08:59:29;;;;;;;20.65;12.32;;;;;;;13.43;54.40;99806.59;5095330;28;20079;-67
2022/12/23 09:01:58;;;;;;;18.38;11.80;;;;;;;13.40;54.41;99796.09;5094841;28;20142;-66
2022/12/23 09:04:26;;;;;;;17.98;12.32;;;;;;;13.39;54.46;99795.25;5094359;28;20128;-68
2022/12/23 09:06:55;;;;;;;19.30;11.77;;;;;;;13.40;54.30;99804.16;5077032;28;20571;-66
2022/12/23 09:09:23;;;;;;;20.23;12.20;;;;;;;13.36;54.15;99810.72;5093532;28;20051;-68
2022/12/23 09:11:52;;;;;;;19.58;12.63;;;;;;;13.35;54.30;99814.38;5094713;28;20044;-66
2022/12/23 09:14:21;;;;;;;18.10;11.45;;;;;;;13.34;54.16;99818.03;5093248;28;20052;-69
2022/12/23 09:16:51;;;;;;;19.20;11.80;;;;;;;13.29;54.31;99818.38;5093329;28;20417;-68
2022/12/23 09:19:19;;;;;;;19.45;12.57;;;;;;;13.30;54.47;99827.28;5094677;28;20036;-66
2022/12/23 09:21:47;;;;;;;19.83;12.70;;;;;;;13.28;54.39;99837.25;5094571;28;20040;-67
2022/12/23 09:24:19;;;;;;;19.58;11.60;;;;;;;13.26;54.38;99825.81;5093993;28;20119;-67
2022/12/23 09:26:47;;;;;;;18.45;11.63;;;;;;;13.24;54.53;99833.97;5094078;28;20043;-67
2022/12/23 09:29:16;;;;;;;20.20;12.32;;;;;;;13.21;54.69;99828.00;5094536;28;20052;-67
2022/12/23 09:31:44;;;;;;;19.75;11.85;;;;;;;13.18;54.61;99829.91;5094314;28;20036;-67
2022/12/23 09:34:13;;;;;;;18.27;12.02;;;;;;;13.17;54.62;99827.34;5094274;28;20057;-66
2022/12/23 09:36:41;;;;;;;18.00;11.70;;;;;;;13.15;54.74;99823.94;5094272;28;20044;-69
2022/12/23 09:39:10;;;;;;;20.08;12.85;;;;;;;13.13;54.65;99815.19;5094270;28;20050;-68
2022/12/23 09:42:00;;;;;;;17.88;11.63;;;;;;;13.11;54.90;99812.59;5092887;28;20102;-68
2022/12/23 09:44:49;;;;;;;19.85;11.85;;;;;;;13.07;55.04;99803.13;5094155;28;20052;-68
2022/12/23 09:47:21;;;;;;;19.05;11.80;;;;;;;13.06;54.71;99793.38;5094096;28;20116;-67
2022/12/23 09:49:57;;;;;;;18.77;12.30;;;;;;;13.05;54.96;99791.69;5093812;28;20400;-67
2022/12/23 09:52:36;;;;;;;17.92;11.52;;;;;;;13.03;55.04;99798.13;5093968;28;20048;-66
2022/12/23 09:55:09;;;;;;;19.17;11.85;;;;;;;13.01;54.90;99800.91;5088013;28;20044;-66
2022/12/23 09:57:44;;;;;;;19.10;11.85;;;;;;;13.00;54.81;99817.94;5093995;28;20098;-66
2022/12/23 10:00:17;;;;;;;20.83;11.52;;;;;;;12.97;55.12;99815.50;5093685;28;20051;-66
2022/12/23 10:02:59;;;;;;;24.58;13.35;;;;;;;13.08;58.36;99812.00;5092836;28;20051;-67
2022/12/23 10:05:39;;;;;;;22.80;12.43;;;;;;;13.10;57.27;99794.84;5092259;28;20048;-67
2022/12/23 10:08:12;;;;;;;20.73;12.43;;;;;;;13.09;56.78;99787.78;5093682;28;20048;-68
2022/12/23 10:10:45;;;;;;;24.48;12.65;;;;;;;13.10;57.41;99775.22;5093585;28;20370;-69
2022/12/23 10:13:24;;;;;;;21.65;12.50;;;;;;;13.08;57.55;99769.16;5093584;28;20055;-68
2022/12/23 10:15:56;;;;;;;22.63;12.18;;;;;;;13.08;56.97;99759.28;5093471;28;20401;-67
2022/12/23 10:18:33;;;;;;;30.77;13.07;;;;;;;13.07;57.34;99765.63;5092333;28;20519;-67
2022/12/23 10:21:06;;;;;;;24.83;12.90;;;;;;;13.05;57.74;99764.91;5093277;28;20048;-67
2022/12/23 10:23:38;;;;;;;23.92;13.23;;;;;;;13.00;57.66;99756.34;5126328;27;20040;-67
2022/12/23 10:26:14;;;;;;;24.20;12.43;;;;;;;12.99;57.64;99760.00;5093486;28;20067;-67
2022/12/23 10:28:42;;;;;;;23.70;12.73;;;;;;;12.97;57.65;99759.28;5093609;28;20051;-66
2022/12/23 10:31:19;;;;;;;21.10;12.18;;;;;;;12.94;57.39;99756.84;5093392;28;20131;-69
2022/12/23 10:34:16;;;;;;;21.58;12.35;;;;;;;12.91;57.16;99751.72;5072687;28;20041;-68
2022/12/23 10:36:52;;;;;;;20.42;12.45;;;;;;;12.90;56.86;99744.66;5072825;28;20118;-68
2022/12/23 10:39:31;;;;;;;20.23;12.48;;;;;;;12.89;56.70;99742.97;5072950;28;20044;-69
2022/12/23 10:42:12;;;;;;;22.63;12.48;;;;;;;12.85;56.78;99737.00;5071407;28;20070;-69
2022/12/23 10:45:10;;;;;;;20.63;12.55;;;;;;;12.80;56.61;99727.63;5073283;28;20505;-69
2022/12/23 10:47:50;;;;;;;28.65;13.43;;;;;;;12.86;58.62;99737.84;5091589;28;20044;-71
2022/12/23 10:50:35;;;;;;;30.58;13.60;;;;;;;13.02;63.36;99741.03;5092619;28;20102;-69
2022/12/23 10:53:10;;;;;;;24.17;13.23;;;;;;;13.05;60.76;99735.44;5125457;27;20109;-69
2022/12/23 10:55:39;;;;;;;23.77;13.23;;;;;;;13.04;60.55;99736.44;5092653;28;20047;-69
2022/12/23 10:58:14;;;;;;;27.38;13.32;;;;;;;13.02;60.51;99732.16;5092859;28;20047;-70
2022/12/23 11:00:46;;;;;;;27.13;12.55;;;;;;;12.98;60.31;99736.91;5092588;28;20040;-69
2022/12/23 11:03:22;;;;;;;23.95;12.48;;;;;;;12.94;60.21;99732.78;5092616;28;20051;-67
2022/12/23 11:05:52;;;;;;;22.65;13.15;;;;;;;12.91;59.88;99735.66;5092336;28;20039;-67
2022/12/23 11:08:22;;;;;;;21.33;12.68;;;;;;;12.85;59.58;99739.69;5091332;28;20063;-66
2022/12/23 11:10:50;;;;;;;23.13;13.60;;;;;;;12.85;59.48;99739.69;5091580;28;20048;-66
2022/12/23 11:13:34;;;;;;;24.05;13.10;;;;;;;12.82;59.25;99739.06;5091852;28;20303;-67
2022/12/23 11:16:18;;;;;;;22.48;12.77;;;;;;;12.80;59.12;99727.63;5125194;27;20051;-66
2022/12/23 11:18:59;;;;;;;23.55;12.23;;;;;;;12.78;58.80;99734.91;5092389;28;20040;-67
2022/12/23 11:21:29;;;;;;;23.27;12.38;;;;;;;12.77;58.49;99735.91;5092180;28;20473;-66
2022/12/23 11:24:08;;;;;;;20.98;12.98;;;;;;;12.75;58.55;99732.50;5090794;28;20048;-66
2022/12/23 11:26:36;;;;;;;21.13;12.27;;;;;;;12.73;58.34;99729.91;5092163;28;20048;-66
2022/12/23 11:29:10;;;;;;;23.50;12.20;;;;;;;12.70;58.18;99722.13;5090908;28;20201;-67
2022/12/23 11:31:38;;;;;;;20.38;12.23;;;;;;;12.70;58.18;99721.28;5092384;28;20044;-67
2022/12/23 11:34:16;;;;;;;23.38;11.82;;;;;;;12.69;57.99;99722.25;5092167;28;20052;-67
2022/12/23 11:36:51;;;;;;;20.98;11.90;;;;;;;12.65;58.00;99724.31;5090669;28;20434;-66
2022/12/23 11:39:26;;;;;;;20.30;12.32;;;;;;;12.65;58.00;99734.19;5090829;28;20040;-67
2022/12/23 11:42:02;;;;;;;22.63;12.48;;;;;;;12.63;58.04;99736.94;5091847;28;20056;-67
2022/12/23 11:44:34;;;;;;;23.73;12.00;;;;;;;12.63;57.88;99730.75;5091778;28;20052;-67
2022/12/23 11:47:23;;;;;;;23.33;12.43;;;;;;;12.58;57.84;99721.25;5091680;28;20044;-67
2022/12/23 11:49:56;;;;;;;19.92;11.82;;;;;;;12.58;57.90;99726.59;5091599;28;20052;-67
2022/12/23 11:52:25;;;;;;;22.27;12.27;;;;;;;12.57;57.80;99737.44;5090603;28;20072;-67
2022/12/23 11:54:55;;;;;;;20.83;12.60;;;;;;;12.55;57.89;99740.22;5091732;28;20051;-67
2022/12/23 11:57:32;;;;;;;21.30;12.05;;;;;;;12.54;57.66;99734.97;5091808;28;20105;-67
2022/12/23 12:00:04;;;;;;;22.55;12.73;;;;;;;12.51;57.80;99737.88;5091855;28;20048;-66